createdAt,value
2019-06-07T00:02:26.482Z,69.60
2019-06-07T00:04:53.107Z,68.90
2019-06-07T00:07:21.798Z,69.10
2019-06-07T00:09:48.116Z,68.70
2019-06-07T00:12:16.902Z,69.10
2019-06-07T00:14:42.987Z,69.20
2019-06-07T00:17:12.490Z,69.40
2019-06-07T00:19:38.225Z,69.70
2019-06-07T00:22:32.524Z,70.00
2019-06-07T00:24:33.753Z,70.00
2019-06-07T00:27:01.198Z,70.10
2019-06-07T00:29:27.658Z,70.40
2019-06-07T00:31:54.172Z,70.20
2019-06-07T00:34:23.170Z,70.40
2019-06-07T00:36:49.323Z,70.60
2019-06-07T00:39:20.277Z,70.70
2019-06-07T00:41:44.115Z,70.60
2019-06-07T00:44:10.679Z,70.80
2019-06-07T00:46:37.308Z,71.10
2019-06-07T00:49:03.814Z,71.50
2019-06-07T00:51:49.582Z,71.80
2019-06-07T00:53:58.794Z,72.10
2019-06-07T00:56:25.367Z,72.30
2019-06-07T00:59:10.271Z,72.30
2019-06-07T01:01:23.334Z,72.90
2019-06-07T01:03:49.361Z,72.90
2019-06-07T01:06:17.492Z,72.80
2019-06-07T01:08:44.318Z,72.30
2019-06-07T01:11:11.359Z,72.40
2019-06-07T01:13:37.965Z,72.60
2019-06-07T01:16:04.573Z,72.90
2019-06-07T01:18:39.004Z,73.20
2019-06-07T01:20:59.558Z,73.40
2019-06-07T01:25:54.572Z,73.90
2019-06-07T01:28:26.332Z,73.90
2019-06-07T01:30:51.118Z,74.00
2019-06-07T01:33:18.335Z,73.70
2019-06-07T01:35:45.202Z,73.80
2019-06-07T01:38:12.240Z,73.90
2019-06-07T01:40:38.714Z,74.40
2019-06-07T01:43:05.332Z,74.50
2019-06-07T01:45:31.930Z,74.30
2019-06-07T01:47:58.614Z,74.60
2019-06-07T01:50:27.042Z,74.60
2019-06-07T01:52:53.526Z,75.00
2019-06-07T01:55:23.684Z,74.90
2019-06-07T01:57:48.733Z,75.10
2019-06-07T02:00:17.428Z,75.10
2019-06-07T02:02:44.318Z,75.60
2019-06-07T02:05:11.530Z,75.90
2019-06-07T02:07:38.141Z,75.80
2019-06-07T02:10:05.876Z,75.80
2019-06-07T02:12:42.358Z,76.10
2019-06-07T02:15:00.967Z,75.90
2019-06-07T02:17:30.145Z,75.90
2019-06-07T02:19:55.931Z,76.10
2019-06-07T02:22:23.640Z,76.00
2019-06-07T02:25:33.901Z,77.10
2019-06-07T02:27:20.431Z,78.50
2019-06-07T02:29:47.398Z,78.90
2019-06-07T02:32:16.310Z,78.50
2019-06-07T02:34:42.820Z,78.70
2019-06-07T02:37:09.495Z,80.30
2019-06-07T02:39:40.481Z,79.80
2019-06-07T02:42:04.527Z,80.40
2019-06-07T02:44:35.949Z,81.30
2019-06-07T02:46:59.520Z,81.30
2019-06-07T02:49:28.936Z,80.70
2019-06-07T02:51:54.312Z,81.60
2019-06-07T02:54:21.380Z,82.00
2019-06-07T02:56:58.050Z,81.60
2019-06-07T02:59:16.551Z,81.20
2019-06-07T03:01:43.562Z,81.10
2019-06-07T03:04:12.984Z,81.50
2019-06-07T03:06:43.903Z,81.50
2019-06-07T03:09:09.211Z,81.50
2019-06-07T03:11:39.438Z,81.90
2019-06-07T03:14:06.580Z,81.60
2019-06-07T03:16:45.112Z,82.10
2019-06-07T03:19:13.702Z,82.00
2019-06-07T03:21:42.078Z,81.90
2019-06-07T03:24:08.686Z,82.00
2019-06-07T03:27:23.332Z,81.70
2019-06-07T03:29:03.760Z,81.70
2019-06-07T03:31:32.677Z,81.80
2019-06-07T03:33:58.750Z,81.90
2019-06-07T03:36:26.058Z,82.80
2019-06-07T03:38:53.040Z,82.60
2019-06-07T03:41:19.609Z,82.70
2019-06-07T03:43:46.026Z,83.10
2019-06-07T03:46:12.595Z,82.50
2019-06-07T03:48:41.269Z,82.90
2019-06-07T03:51:24.246Z,82.60
2019-06-07T03:53:37.334Z,82.40
2019-06-07T03:56:04.472Z,82.00
2019-06-07T03:58:34.711Z,82.10
2019-06-07T04:01:02.042Z,81.90
2019-06-07T04:03:36.191Z,81.90
2019-06-07T04:05:57.859Z,82.00
2019-06-07T04:08:24.406Z,82.20
2019-06-07T04:10:59.787Z,82.00
2019-06-07T04:13:19.243Z,81.70
2019-06-07T04:15:45.844Z,81.70
2019-06-07T04:18:12.401Z,82.00
2019-06-07T04:20:41.323Z,81.60
2019-06-07T04:23:27.263Z,81.30
2019-06-07T04:25:39.507Z,81.30
2019-06-07T04:28:07.529Z,81.20
2019-06-07T04:30:38.827Z,80.90
2019-06-07T04:33:05.667Z,80.90
2019-06-07T04:35:34.850Z,80.50
2019-06-07T04:38:01.644Z,81.10
2019-06-07T04:40:30.660Z,80.70
2019-06-07T04:42:59.646Z,80.80
2019-06-07T04:45:38.351Z,80.50
2019-06-07T04:48:00.788Z,81.10
2019-06-07T04:50:33.839Z,80.90
2019-06-07T04:52:58.654Z,80.60
2019-06-07T04:55:25.269Z,80.70
2019-06-07T04:57:51.721Z,80.70
2019-06-07T05:00:56.374Z,79.80
2019-06-07T05:03:05.098Z,79.60
2019-06-07T05:05:34.287Z,79.40
2019-06-07T05:08:07.201Z,80.20
2019-06-07T05:10:30.627Z,80.00
2019-06-07T05:12:57.833Z,79.80
2019-06-07T05:15:25.476Z,79.80
2019-06-07T05:17:52.133Z,79.90
2019-06-07T05:20:18.745Z,80.20
2019-06-07T05:22:45.561Z,80.30
2019-06-07T05:25:13.334Z,80.60
2019-06-07T05:27:46.279Z,80.80
2019-06-07T05:30:50.319Z,81.20
2019-06-07T05:32:43.679Z,81.10
2019-06-07T05:35:09.801Z,80.60
2019-06-07T05:37:38.218Z,80.90
2019-06-07T05:40:06.790Z,80.90
2019-06-07T05:42:36.849Z,80.40
2019-06-07T05:45:01.863Z,80.00
2019-06-07T05:47:28.718Z,80.60
2019-06-07T05:49:55.297Z,80.20
2019-06-07T05:52:22.052Z,79.80
2019-06-07T05:54:48.475Z,79.50
2019-06-07T05:57:14.885Z,79.10
2019-06-07T05:59:44.262Z,79.40
2019-06-07T06:02:22.098Z,79.90
2019-06-07T06:04:40.243Z,80.00
2019-06-07T06:07:06.471Z,80.80
2019-06-07T06:09:35.328Z,80.00
2019-06-07T06:12:02.488Z,79.90
2019-06-07T06:14:29.704Z,80.50
2019-06-07T06:16:56.326Z,80.60
2019-06-07T06:19:22.940Z,80.90
2019-06-07T06:21:49.575Z,80.20
2019-06-07T06:24:16.106Z,80.70
2019-06-07T06:26:50.919Z,80.70
2019-06-07T06:29:11.050Z,81.20
2019-06-07T06:31:38.006Z,81.40
2019-06-07T06:34:06.025Z,80.50
2019-06-07T06:36:32.648Z,80.10
2019-06-07T06:38:59.198Z,79.80
2019-06-07T06:41:25.794Z,79.30
2019-06-07T06:43:52.967Z,78.90
2019-06-07T06:46:37.447Z,79.10
2019-06-07T06:48:54.499Z,79.10
2019-06-07T06:51:16.678Z,79.30
2019-06-07T06:53:43.892Z,80.50
2019-06-07T06:56:11.656Z,80.40
2019-06-07T06:59:22.514Z,80.60
2019-06-07T07:01:07.250Z,80.50
2019-06-07T07:03:57.517Z,80.90
2019-06-07T07:06:24.569Z,80.60
2019-06-07T07:08:34.003Z,80.50
2019-06-07T07:11:01.476Z,79.60
2019-06-07T07:13:27.987Z,79.70
2019-06-07T07:15:57.905Z,80.60
2019-06-07T07:18:23.872Z,80.00
2019-06-07T07:20:55.181Z,80.10
2019-06-07T07:23:18.710Z,79.60
2019-06-07T07:25:49.422Z,79.20
2019-06-07T07:28:13.962Z,79.00
2019-06-07T07:30:44.891Z,79.80
2019-06-07T07:33:11.723Z,79.20
2019-06-07T07:35:39.331Z,79.20
2019-06-07T07:38:05.987Z,78.90
2019-06-07T07:40:56.872Z,79.10
2019-06-07T07:43:00.928Z,79.30
2019-06-07T07:45:27.385Z,78.80
2019-06-07T07:48:08.343Z,79.00
2019-06-07T07:50:22.489Z,78.90
2019-06-07T07:52:53.450Z,79.40
2019-06-07T07:55:17.365Z,78.40
2019-06-07T07:57:46.637Z,78.00
2019-06-07T08:00:49.671Z,77.70
2019-06-07T08:02:41.007Z,77.80
2019-06-07T08:05:21.073Z,76.90
2019-06-07T08:07:36.094Z,76.50
2019-06-07T08:10:06.739Z,76.60
2019-06-07T08:12:55.686Z,75.60
2019-06-07T08:15:03.539Z,75.80
2019-06-07T08:17:30.968Z,75.80
2019-06-07T08:19:57.760Z,75.80
2019-06-07T08:22:25.182Z,74.60
2019-06-07T08:24:53.340Z,75.00
2019-06-07T08:27:26.251Z,74.80
2019-06-07T08:30:07.849Z,74.70
2019-06-07T08:32:17.021Z,74.10
2019-06-07T08:34:43.549Z,74.50
2019-06-07T08:37:10.082Z,73.20
2019-06-07T08:39:36.603Z,73.10
2019-06-07T08:42:15.545Z,73.80
2019-06-07T08:44:32.563Z,72.50
2019-06-07T08:47:18.405Z,72.60
2019-06-07T08:49:27.650Z,73.30
2019-06-07T08:52:04.562Z,74.10
2019-06-07T08:54:23.578Z,72.50
2019-06-07T08:56:52.737Z,72.50
2019-06-07T08:59:18.850Z,71.40
2019-06-07T09:01:45.403Z,73.50
2019-06-07T09:04:12.021Z,73.40
2019-06-07T09:07:02.401Z,72.00
2019-06-07T09:09:07.520Z,72.00
2019-06-07T09:11:34.153Z,71.60
2019-06-07T09:14:05.358Z,71.70
2019-06-07T09:16:29.126Z,70.80
2019-06-07T09:18:58.412Z,70.50
2019-06-07T09:21:24.075Z,70.30
2019-06-07T09:23:50.861Z,69.60
2019-06-07T09:26:19.106Z,70.20
2019-06-07T09:28:46.400Z,70.80
2019-06-07T09:31:13.096Z,69.10
2019-06-07T09:33:40.087Z,69.50
2019-06-07T09:36:10.281Z,69.20
2019-06-07T09:38:35.499Z,69.10
2019-06-07T09:41:03.162Z,69.10
2019-06-07T09:44:00.573Z,69.70
2019-06-07T09:46:01.077Z,70.20
2019-06-07T09:49:09.254Z,70.40
2019-06-07T09:50:55.339Z,72.20
2019-06-07T09:53:24.017Z,71.50
2019-06-07T09:55:50.680Z,70.00
2019-06-07T09:58:50.534Z,70.90
2019-06-07T10:00:45.547Z,70.60
2019-06-07T10:03:20.174Z,70.10
2019-06-07T10:05:40.544Z,69.70
2019-06-07T10:08:25.784Z,69.00
2019-06-07T10:10:35.630Z,67.00
2019-06-07T10:13:03.791Z,66.90
2019-06-07T10:15:30.610Z,67.30
2019-06-07T10:17:58.553Z,65.00
2019-06-07T10:20:25.334Z,65.30
2019-06-07T10:22:51.972Z,61.80
2019-06-07T10:25:18.715Z,63.10
2019-06-07T10:27:45.155Z,62.80
2019-06-07T10:30:11.849Z,66.00
2019-06-07T10:32:38.527Z,68.20
2019-06-07T10:35:07.124Z,69.20
2019-06-07T10:37:33.646Z,68.40
2019-06-07T10:40:00.619Z,69.80
2019-06-07T10:42:27.236Z,69.00
2019-06-07T10:44:53.708Z,69.20
2019-06-07T10:47:20.342Z,69.70
2019-06-07T10:49:48.833Z,70.10
2019-06-07T10:52:15.474Z,70.00
2019-06-07T10:54:42.227Z,70.00
2019-06-07T10:57:12.190Z,70.20
2019-06-07T10:59:37.168Z,70.00
2019-06-07T11:02:03.838Z,68.60
2019-06-07T11:04:30.448Z,67.30
2019-06-07T11:06:56.972Z,66.40
2019-06-07T11:09:23.425Z,66.20
2019-06-07T11:11:49.827Z,66.40
2019-06-07T11:14:16.533Z,65.50
2019-06-07T11:16:43.117Z,65.00
2019-06-07T11:19:13.906Z,63.50
2019-06-07T11:21:38.089Z,64.00
2019-06-07T11:24:06.041Z,62.90
2019-06-07T11:26:33.249Z,62.30
2019-06-07T11:28:59.799Z,61.70
2019-06-07T11:31:26.381Z,60.70
2019-06-07T11:33:53.037Z,61.10
2019-06-07T11:36:19.582Z,60.50
2019-06-07T11:38:46.183Z,59.20
2019-06-07T11:41:13.548Z,56.60
2019-06-07T11:43:40.164Z,58.60
2019-06-07T11:46:06.787Z,57.40
2019-06-07T11:48:33.981Z,58.20
2019-06-07T11:51:00.938Z,57.60
2019-06-07T11:53:27.354Z,57.70
2019-06-07T11:55:54.442Z,57.60
2019-06-07T11:58:21.890Z,56.80
2019-06-07T12:00:49.084Z,56.00
2019-06-07T12:03:15.952Z,54.40
2019-06-07T12:05:42.895Z,54.90
2019-06-07T12:08:10.041Z,56.00
2019-06-07T12:10:42.517Z,56.40
2019-06-07T12:13:05.598Z,55.80
2019-06-07T12:15:32.213Z,55.10
2019-06-07T12:17:58.672Z,55.20
2019-06-07T12:20:25.706Z,57.30
2019-06-07T12:22:52.242Z,56.50
2019-06-07T12:25:24.432Z,58.40
2019-06-07T12:27:47.663Z,58.40
2019-06-07T12:30:22.515Z,57.90
2019-06-07T12:32:42.694Z,56.70
2019-06-07T12:35:11.346Z,57.00
2019-06-07T12:37:44.499Z,56.60
2019-06-07T12:40:07.136Z,57.10
2019-06-07T12:42:33.532Z,56.90
2019-06-07T12:45:00.137Z,57.40
2019-06-07T12:47:26.654Z,56.40
2019-06-07T12:49:53.280Z,56.70
2019-06-07T12:52:22.486Z,57.50
2019-06-07T12:54:48.231Z,57.80
2019-06-07T12:57:16.244Z,58.10
2019-06-07T12:59:42.998Z,58.10
2019-06-07T13:02:09.502Z,57.90
2019-06-07T13:04:36.085Z,58.00
2019-06-07T13:07:02.800Z,57.00
2019-06-07T13:09:29.401Z,57.80
2019-06-07T13:11:56.437Z,58.00
2019-06-07T13:14:24.010Z,57.00
2019-06-07T13:16:50.920Z,56.50
2019-06-07T13:19:18.056Z,56.00
2019-06-07T13:21:44.808Z,56.30
2019-06-07T13:24:11.365Z,55.10
2019-06-07T13:26:37.880Z,55.40
2019-06-07T13:29:04.544Z,55.80
2019-06-07T13:31:31.055Z,55.50
2019-06-07T13:34:00.384Z,56.00
2019-06-07T13:36:26.931Z,57.00
2019-06-07T13:38:53.548Z,57.90
2019-06-07T13:41:35.214Z,57.60
2019-06-07T13:43:51.498Z,58.00
2019-06-07T13:46:17.031Z,58.70
2019-06-07T13:48:43.919Z,60.40
2019-06-07T13:51:10.582Z,60.70
2019-06-07T13:53:37.141Z,61.00
2019-06-07T13:56:03.749Z,61.70
2019-06-07T13:58:30.318Z,61.20
2019-06-07T14:00:56.819Z,61.70
2019-06-07T14:03:27.249Z,61.20
2019-06-07T14:05:51.724Z,61.30
2019-06-07T14:08:19.030Z,62.50
2019-06-07T14:10:45.888Z,63.10
2019-06-07T14:13:12.423Z,62.70
2019-06-07T14:15:39.489Z,62.30
2019-06-07T14:18:06.095Z,60.70
2019-06-07T14:20:34.574Z,59.80
2019-06-07T14:23:01.123Z,58.80
2019-06-07T14:25:29.258Z,59.20
2019-06-07T14:27:56.329Z,58.20
2019-06-07T14:30:23.973Z,58.90
2019-06-07T14:32:50.970Z,58.20
2019-06-07T14:35:17.732Z,57.00
2019-06-07T14:37:44.348Z,57.50
2019-06-07T14:40:11.866Z,56.90
2019-06-07T14:42:38.434Z,55.30
2019-06-07T14:45:09.862Z,55.60
2019-06-07T14:47:36.704Z,55.90
2019-06-07T14:50:07.896Z,56.10
2019-06-07T14:52:35.120Z,55.00
2019-06-07T14:55:03.596Z,55.50
2019-06-07T14:57:31.109Z,55.20
2019-06-07T14:59:57.777Z,55.10
2019-06-07T15:02:24.295Z,54.40
2019-06-07T15:04:51.996Z,53.90
2019-06-07T15:07:18.517Z,55.00
2019-06-07T15:09:45.140Z,55.00
2019-06-07T15:12:24.162Z,55.00
2019-06-07T15:14:40.006Z,55.60
2019-06-07T15:17:07.724Z,55.10
2019-06-07T15:19:36.252Z,55.00
2019-06-07T15:22:02.757Z,54.50
2019-06-07T15:24:33.538Z,54.60
2019-06-07T15:26:57.582Z,54.50
2019-06-07T15:29:24.205Z,54.20
2019-06-07T15:31:50.784Z,55.10
2019-06-07T15:34:17.393Z,54.60
2019-06-07T15:36:43.926Z,54.80
2019-06-07T15:39:10.555Z,54.50
2019-06-07T15:41:37.425Z,54.60
2019-06-07T15:44:04.539Z,54.00
2019-06-07T15:46:31.488Z,53.80
2019-06-07T15:48:58.354Z,53.60
2019-06-07T15:51:24.989Z,54.10
2019-06-07T15:53:51.628Z,54.40
2019-06-07T15:56:18.213Z,53.60
2019-06-07T15:58:44.623Z,54.80
2019-06-07T16:01:11.266Z,53.90
2019-06-07T16:03:38.076Z,54.30
2019-06-07T16:06:05.068Z,52.60
2019-06-07T16:08:32.296Z,53.20
2019-06-07T16:10:59.148Z,54.10
2019-06-07T16:13:25.689Z,53.20
2019-06-07T16:15:52.341Z,53.40
2019-06-07T16:18:19.266Z,53.90
2019-06-07T16:20:45.924Z,54.70
2019-06-07T16:23:12.437Z,53.90
2019-06-07T16:25:40.117Z,53.50
2019-06-07T16:28:06.934Z,53.70
2019-06-07T16:30:34.306Z,53.30
2019-06-07T16:33:01.172Z,53.80
2019-06-07T16:35:27.731Z,54.20
2019-06-07T16:37:54.358Z,53.40
2019-06-07T16:40:20.978Z,53.80
2019-06-07T16:42:48.961Z,54.10
2019-06-07T16:45:16.261Z,53.70
2019-06-07T16:47:45.271Z,53.60
2019-06-07T16:50:12.359Z,53.40
2019-06-07T16:52:39.219Z,53.70
2019-06-07T16:55:06.603Z,54.00
2019-06-07T16:57:33.173Z,54.50
2019-06-07T16:59:59.695Z,54.20
2019-06-07T17:02:26.188Z,55.10
2019-06-07T17:04:52.861Z,55.00
2019-06-07T17:07:19.469Z,55.20
2019-06-07T17:09:47.785Z,56.30
2019-06-07T17:12:14.565Z,55.10
2019-06-07T17:14:42.400Z,55.70
2019-06-07T17:17:09.523Z,55.60
2019-06-07T17:19:36.238Z,55.80
2019-06-07T17:22:02.867Z,55.70
2019-06-07T17:24:29.304Z,55.80
2019-06-07T17:26:55.841Z,56.20
2019-06-07T17:29:22.461Z,55.40
2019-06-07T17:31:50.268Z,55.10
2019-06-07T17:34:17.756Z,55.70
2019-06-07T17:36:44.907Z,55.70
2019-06-07T17:39:11.685Z,56.80
2019-06-07T17:41:52.418Z,60.00
2019-06-07T17:44:06.813Z,62.20
2019-06-07T17:46:33.303Z,62.80
2019-06-07T17:48:59.860Z,63.40
2019-06-07T17:51:26.474Z,63.40
2019-06-07T17:53:52.879Z,63.70
2019-06-07T17:56:19.429Z,64.10
2019-06-07T17:58:46.418Z,64.10
2019-06-07T18:01:13.541Z,64.20
2019-06-07T18:03:40.171Z,64.30
2019-06-07T18:06:06.799Z,64.80
2019-06-07T18:08:34.176Z,64.80
2019-06-07T18:11:00.595Z,64.90
2019-06-07T18:13:27.555Z,64.90
2019-06-07T18:15:58.978Z,64.90
2019-06-07T18:18:22.506Z,65.10
2019-06-07T18:20:49.303Z,65.50
2019-06-07T18:23:16.002Z,65.70
2019-06-07T18:25:42.619Z,65.50
2019-06-07T18:28:09.453Z,65.90
2019-06-07T18:30:36.920Z,66.10
2019-06-07T18:33:04.355Z,66.50
2019-06-07T18:35:30.975Z,66.90
2019-06-07T18:38:24.275Z,67.40
2019-06-07T18:41:07.095Z,68.40
2019-06-07T18:43:34.424Z,67.90
2019-06-07T18:46:00.966Z,68.10
2019-06-07T18:48:27.388Z,68.20
2019-06-07T18:50:54.713Z,68.70
2019-06-07T18:53:21.385Z,69.90
2019-06-07T18:55:48.031Z,69.30
2019-06-07T18:58:14.721Z,69.60
2019-06-07T19:00:41.448Z,70.40
2019-06-07T19:03:08.040Z,69.80
2019-06-07T19:05:34.696Z,70.20
2019-06-07T19:08:01.209Z,70.40
2019-06-07T19:10:27.958Z,70.80
2019-06-07T19:12:55.226Z,71.10
2019-06-07T19:15:23.137Z,70.90
2019-06-07T19:17:50.669Z,72.20
2019-06-07T19:20:19.620Z,71.60
2019-06-07T19:22:46.189Z,71.60
2019-06-07T19:25:13.499Z,72.00
2019-06-07T19:27:40.216Z,72.20
2019-06-07T19:30:07.847Z,72.10
2019-06-07T19:32:34.748Z,72.70
2019-06-07T19:35:01.655Z,73.20
2019-06-07T19:37:28.540Z,73.20
2019-06-07T19:39:55.839Z,73.50
2019-06-07T19:42:23.057Z,73.50
2019-06-07T19:44:54.543Z,73.80
2019-06-07T19:47:18.558Z,74.20
2019-06-07T19:49:45.133Z,74.70
2019-06-07T19:52:15.594Z,74.80
2019-06-07T19:54:42.180Z,75.10
2019-06-07T19:57:08.882Z,74.30
2019-06-07T19:59:35.400Z,74.80
2019-06-07T20:02:02.181Z,75.10
2019-06-07T20:04:29.398Z,75.60
2019-06-07T20:06:56.228Z,75.60
2019-06-07T20:09:23.525Z,76.20
2019-06-07T20:11:50.058Z,76.50
2019-06-07T20:14:16.678Z,77.00
2019-06-07T20:16:43.204Z,76.80
2019-06-07T20:19:09.824Z,77.00
2019-06-07T20:21:36.394Z,77.40
2019-06-07T20:24:22.827Z,77.70
2019-06-07T20:26:31.911Z,77.60
2019-06-07T20:28:59.279Z,77.80
2019-06-07T20:31:26.098Z,77.80
2019-06-07T20:33:52.805Z,78.30
2019-06-07T20:36:19.413Z,77.80
2019-06-07T20:38:46.034Z,77.90
2019-06-07T20:41:13.219Z,78.00
2019-06-07T20:43:39.848Z,78.00
2019-06-07T20:46:07.003Z,78.20
2019-06-07T20:48:34.878Z,78.30
2019-06-07T20:51:02.848Z,78.80
2019-06-07T20:53:29.642Z,79.10
2019-06-07T20:55:56.830Z,78.80
2019-06-07T20:58:23.548Z,79.20
2019-06-07T21:00:50.163Z,79.30
2019-06-07T21:03:17.133Z,79.70
2019-06-07T21:05:44.345Z,80.00
2019-06-07T21:08:12.967Z,79.90
2019-06-07T21:10:40.039Z,80.00
2019-06-07T21:13:08.014Z,80.30
2019-06-07T21:15:47.914Z,80.80
2019-06-07T21:18:04.974Z,81.00
2019-06-07T21:20:34.033Z,81.20
2019-06-07T21:23:00.696Z,81.40
2019-06-07T21:25:27.648Z,81.50
2019-06-07T21:27:54.185Z,81.50
2019-06-07T21:30:20.801Z,81.70
2019-06-07T21:32:47.456Z,81.70
2019-06-07T21:35:14.579Z,82.10
2019-06-07T21:37:42.721Z,82.30
2019-06-07T21:40:10.370Z,82.30
2019-06-07T21:42:37.367Z,82.60
2019-06-07T21:45:07.585Z,83.00
2019-06-07T21:47:34.122Z,82.90
2019-06-07T21:50:02.463Z,82.70
2019-06-07T21:52:28.960Z,82.90
2019-06-07T21:54:55.530Z,83.10
2019-06-07T21:57:22.146Z,83.10
2019-06-07T21:59:48.719Z,83.00
2019-06-07T22:02:15.267Z,83.10
2019-06-07T22:04:41.822Z,82.60
2019-06-07T22:07:09.452Z,82.50
2019-06-07T22:09:36.419Z,82.40
2019-06-07T22:12:04.483Z,82.60
2019-06-07T22:14:31.245Z,82.10
2019-06-07T22:16:57.697Z,82.50
2019-06-07T22:19:24.161Z,82.30
2019-06-07T22:22:02.167Z,82.00
2019-06-07T22:24:19.365Z,82.00
2019-06-07T22:26:46.022Z,81.70
2019-06-07T22:29:12.632Z,82.20
2019-06-07T22:31:39.143Z,82.60
2019-06-07T22:34:06.777Z,83.90
2019-06-07T22:36:33.659Z,84.80
2019-06-07T22:39:00.073Z,84.80
2019-06-07T22:41:26.689Z,84.40
2019-06-07T22:43:53.627Z,84.50
2019-06-07T22:46:33.528Z,84.50
2019-06-07T22:48:49.721Z,85.10
2019-06-07T22:51:16.463Z,85.10
2019-06-07T22:53:43.503Z,85.10
2019-06-07T22:56:12.019Z,85.40
2019-06-07T22:58:38.685Z,87.00
2019-06-07T23:01:05.135Z,88.30
2019-06-07T23:03:31.977Z,89.10
2019-06-07T23:05:58.543Z,89.70
2019-06-07T23:08:25.080Z,90.00
2019-06-07T23:10:51.571Z,90.20
2019-06-07T23:13:18.137Z,90.40
2019-06-07T23:15:44.689Z,90.50
2019-06-07T23:18:11.438Z,90.50
2019-06-07T23:20:38.580Z,90.50
2019-06-07T23:23:05.183Z,90.60
2019-06-07T23:25:32.161Z,90.70
2019-06-07T23:27:58.923Z,90.80
2019-06-07T23:30:25.633Z,90.80
2019-06-07T23:32:52.137Z,91.00
2019-06-07T23:35:19.103Z,91.10
2019-06-07T23:37:45.525Z,91.20
2019-06-07T23:40:13.245Z,91.20
2019-06-07T23:42:40.302Z,91.20
2019-06-07T23:45:07.315Z,91.20
2019-06-07T23:47:33.719Z,91.50
2019-06-07T23:50:00.270Z,91.70
2019-06-07T23:52:26.793Z,91.80
2019-06-07T23:54:53.200Z,92.10
2019-06-07T23:57:21.002Z,92.10
2019-06-07T23:59:47.997Z,92.20
